Arlington, WI

10:11 AM CDT on October 30, 2014 (GMT -0500)
MW122 - W. Acker Pkwy. | Change Station
CLOSE
Current Station
Personal Weather Station
Location: DeForest, WI
Elevation: 945 ft
Nearby Weather Stations

Elev 945 ft 43.24 °N, 89.36 °W | Updated 1 second ago

Overcast
Overcast
41.2 °F
Feels Like 41 °F
N
1.5
Wind Variable Wind from WSW
Gusts 2.3 mph

Today
High -- | Low -- °F
--% Chance of Precip.
Yesterday
High -- | Low -- °F
Precip. -- in
7:30 AM 5:51 PM
Waxing Crescent, 44% visible
Pressure 30.12 in
Visibility 10.0 miles
Clouds Mostly Cloudy 11000 ft
Overcast 20000 ft
Windchill 41 °F
Dew Point 37 °F
Humidity 86%
Rainfall 0.00 in
Snow Depth Not available.
UV 1 out of 12
Pollen .10 out of 12
Air Quality Not available.
Flu Activity Not available.
METAR KMSN 301453Z 24004KT 10SM BKN110 OVC200 06/01 A3010 RMK AO2 SLP200 T00610011 50000

More Conditions Fewer Conditions

Pressure 30.12 in
Visibility 10.0 miles
Clouds Mostly Cloudy 11000 ft
Overcast 20000 ft
Windchill 41 °F
Dew Point 37 °F
Humidity 86%
Rainfall 0.00 in
Snow Depth Not available.
UV 1 out of 12
Pollen .10 out of 12
Air Quality Not available.
Flu Activity Not available.
METAR KMSN 301453Z 24004KT 10SM BKN110 OVC200 06/01 A3010 RMK AO2 SLP200 T00610011 50000

More Conditions Fewer Conditions

10-Day Weather Forecast

Almanac

Astronomy

Oct. 30, 2014 Rise Set
Actual Time
Civil Twilight
Nautical Twilight
Astronomical Twilight
Moon
Length of Visible Light
Length of Day
Tomorrow will be .
, % of the Moon is Illuminated

Today's Extremes

State Highs State Lows

Community

WunderPhotos

Upload Photos

1,766,387 photos uploaded!

WunderBlogs® & News

Nearby

Air Quality

  Air Quality AQ Index Pollutant
Not available.

Snow Depth

Station Depth Elevation

Earthquake Activity

City Distance Mag. Time & Date
Minimum magnitude displayed is 2.5.

Coastal Water Temperatures

Place Temperature

Nearby Weather Stations